sensor_id;sensor_type;location;lat;lon;timestamp;temperature;humidity
15983;DHT22;14442;50.196;8.096;2024-02-16T00:01:55;21.90;46.90
15983;DHT22;14442;50.196;8.096;2024-02-16T00:04:22;21.90;46.80
15983;DHT22;14442;50.196;8.096;2024-02-16T00:06:48;21.90;46.70
15983;DHT22;14442;50.196;8.096;2024-02-16T00:09:15;21.90;47.00
15983;DHT22;14442;50.196;8.096;2024-02-16T00:11:42;21.90;46.90
15983;DHT22;14442;50.196;8.096;2024-02-16T00:14:10;21.90;46.70
15983;DHT22;14442;50.196;8.096;2024-02-16T00:16:38;22.00;46.80
15983;DHT22;14442;50.196;8.096;2024-02-16T00:19:04;22.00;46.70
15983;DHT22;14442;50.196;8.096;2024-02-16T00:21:31;22.00;46.80
15983;DHT22;14442;50.196;8.096;2024-02-16T00:23:58;22.00;46.60
15983;DHT22;14442;50.196;8.096;2024-02-16T00:26:24;22.00;46.70
15983;DHT22;14442;50.196;8.096;2024-02-16T00:28:51;22.00;46.50
15983;DHT22;14442;50.196;8.096;2024-02-16T00:31:17;22.00;46.60
15983;DHT22;14442;50.196;8.096;2024-02-16T00:33:46;21.90;46.80
15983;DHT22;14442;50.196;8.096;2024-02-16T00:36:12;22.00;46.70
15983;DHT22;14442;50.196;8.096;2024-02-16T00:38:39;22.00;46.70
15983;DHT22;14442;50.196;8.096;2024-02-16T00:41:06;21.80;46.80
15983;DHT22;14442;50.196;8.096;2024-02-16T00:43:33;21.90;46.70
15983;DHT22;14442;50.196;8.096;2024-02-16T00:46:00;22.00;46.50
15983;DHT22;14442;50.196;8.096;2024-02-16T00:48:26;21.90;46.80
15983;DHT22;14442;50.196;8.096;2024-02-16T00:50:54;22.00;46.70
15983;DHT22;14442;50.196;8.096;2024-02-16T00:53:21;22.00;46.50
15983;DHT22;14442;50.196;8.096;2024-02-16T00:55:47;22.00;46.40
15983;DHT22;14442;50.196;8.096;2024-02-16T00:58:14;22.00;46.70
15983;DHT22;14442;50.196;8.096;2024-02-16T01:00:41;21.90;46.60
15983;DHT22;14442;50.196;8.096;2024-02-16T01:03:08;21.90;46.30
15983;DHT22;14442;50.196;8.096;2024-02-16T01:05:35;21.80;46.70
15983;DHT22;14442;50.196;8.096;2024-02-16T01:08:03;21.80;46.30
15983;DHT22;14442;50.196;8.096;2024-02-16T01:10:30;21.40;47.10
15983;DHT22;14442;50.196;8.096;2024-02-16T01:12:56;21.20;47.50
15983;DHT22;14442;50.196;8.096;2024-02-16T01:15:23;21.10;47.80
15983;DHT22;14442;50.196;8.096;2024-02-16T01:17:50;21.00;48.10
15983;DHT22;14442;50.196;8.096;2024-02-16T01:20:16;21.10;48.10
15983;DHT22;14442;50.196;8.096;2024-02-16T01:22:43;21.30;47.90
15983;DHT22;14442;50.196;8.096;2024-02-16T01:25:11;21.40;47.60
15983;DHT22;14442;50.196;8.096;2024-02-16T01:27:37;21.60;47.50
15983;DHT22;14442;50.196;8.096;2024-02-16T01:30:06;21.80;47.20
15983;DHT22;14442;50.196;8.096;2024-02-16T01:32:33;21.90;47.10
15983;DHT22;14442;50.196;8.096;2024-02-16T01:35:00;21.90;47.00
15983;DHT22;14442;50.196;8.096;2024-02-16T01:37:26;22.00;47.00
15983;DHT22;14442;50.196;8.096;2024-02-16T01:39:53;22.00;46.90
15983;DHT22;14442;50.196;8.096;2024-02-16T01:42:21;22.00;46.90
15983;DHT22;14442;50.196;8.096;2024-02-16T01:44:48;22.00;46.80
15983;DHT22;14442;50.196;8.096;2024-02-16T01:47:14;22.00;46.80
15983;DHT22;14442;50.196;8.096;2024-02-16T01:49:42;21.90;46.80
15983;DHT22;14442;50.196;8.096;2024-02-16T01:52:08;21.90;46.80
15983;DHT22;14442;50.196;8.096;2024-02-16T01:54:35;21.90;46.60
15983;DHT22;14442;50.196;8.096;2024-02-16T01:57:01;22.00;46.80
15983;DHT22;14442;50.196;8.096;2024-02-16T01:59:30;22.00;46.70
15983;DHT22;14442;50.196;8.096;2024-02-16T02:01:58;22.00;46.50
15983;DHT22;14442;50.196;8.096;2024-02-16T02:04:25;22.00;46.20
15983;DHT22;14442;50.196;8.096;2024-02-16T02:06:52;22.00;46.70
15983;DHT22;14442;50.196;8.096;2024-02-16T02:09:18;22.00;46.60
15983;DHT22;14442;50.196;8.096;2024-02-16T02:11:45;22.00;46.70
15983;DHT22;14442;50.196;8.096;2024-02-16T02:14:11;22.00;46.50
15983;DHT22;14442;50.196;8.096;2024-02-16T02:16:39;21.90;46.50
15983;DHT22;14442;50.196;8.096;2024-02-16T02:19:06;21.80;46.80
15983;DHT22;14442;50.196;8.096;2024-02-16T02:21:32;21.80;46.90
15983;DHT22;14442;50.196;8.096;2024-02-16T02:24:01;21.90;46.90
15983;DHT22;14442;50.196;8.096;2024-02-16T02:26:27;21.90;46.70
15983;DHT22;14442;50.196;8.096;2024-02-16T02:28:54;22.10;46.70
15983;DHT22;14442;50.196;8.096;2024-02-16T02:31:20;22.00;46.40
15983;DHT22;14442;50.196;8.096;2024-02-16T02:33:47;22.00;46.40
15983;DHT22;14442;50.196;8.096;2024-02-16T02:36:13;21.90;46.70
15983;DHT22;14442;50.196;8.096;2024-02-16T02:38:40;21.80;46.70
15983;DHT22;14442;50.196;8.096;2024-02-16T02:41:08;21.90;46.80
15983;DHT22;14442;50.196;8.096;2024-02-16T02:43:34;21.80;46.60
15983;DHT22;14442;50.196;8.096;2024-02-16T02:46:01;21.90;46.80
15983;DHT22;14442;50.196;8.096;2024-02-16T02:48:28;21.90;46.70
15983;DHT22;14442;50.196;8.096;2024-02-16T02:50:54;21.90;46.60
15983;DHT22;14442;50.196;8.096;2024-02-16T02:53:21;21.60;47.50
15983;DHT22;14442;50.196;8.096;2024-02-16T02:55:47;21.60;47.00
15983;DHT22;14442;50.196;8.096;2024-02-16T02:58:15;21.70;47.10
15983;DHT22;14442;50.196;8.096;2024-02-16T03:00:43;21.80;46.80
15983;DHT22;14442;50.196;8.096;2024-02-16T03:03:10;21.90;46.60
15983;DHT22;14442;50.196;8.096;2024-02-16T03:05:37;21.90;46.60
15983;DHT22;14442;50.196;8.096;2024-02-16T03:08:03;21.90;47.10
15983;DHT22;14442;50.196;8.096;2024-02-16T03:10:30;21.90;46.60
15983;DHT22;14442;50.196;8.096;2024-02-16T03:13:00;21.90;46.60
15983;DHT22;14442;50.196;8.096;2024-02-16T03:15:28;21.80;46.70
15983;DHT22;14442;50.196;8.096;2024-02-16T03:17:54;21.80;46.70
15983;DHT22;14442;50.196;8.096;2024-02-16T03:20:21;21.90;46.60
15983;DHT22;14442;50.196;8.096;2024-02-16T03:22:48;21.90;46.50
15983;DHT22;14442;50.196;8.096;2024-02-16T03:25:15;21.70;46.70
15983;DHT22;14442;50.196;8.096;2024-02-16T03:27:42;21.80;46.60
15983;DHT22;14442;50.196;8.096;2024-02-16T03:30:08;21.90;46.60
15983;DHT22;14442;50.196;8.096;2024-02-16T03:32:37;21.80;46.40
15983;DHT22;14442;50.196;8.096;2024-02-16T03:35:04;21.90;47.10
15983;DHT22;14442;50.196;8.096;2024-02-16T03:37:30;21.80;46.40
15983;DHT22;14442;50.196;8.096;2024-02-16T03:39:57;21.80;46.50
15983;DHT22;14442;50.196;8.096;2024-02-16T03:42:24;21.90;46.40
15983;DHT22;14442;50.196;8.096;2024-02-16T03:44:50;21.90;46.40
15983;DHT22;14442;50.196;8.096;2024-02-16T03:47:17;21.90;46.40
15983;DHT22;14442;50.196;8.096;2024-02-16T03:49:45;21.90;46.40
15983;DHT22;14442;50.196;8.096;2024-02-16T03:52:12;21.90;46.40
15983;DHT22;14442;50.196;8.096;2024-02-16T03:54:39;21.90;46.40
15983;DHT22;14442;50.196;8.096;2024-02-16T03:57:07;21.90;46.40
15983;DHT22;14442;50.196;8.096;2024-02-16T03:59:36;21.90;46.40
15983;DHT22;14442;50.196;8.096;2024-02-16T04:02:03;21.90;46.30
15983;DHT22;14442;50.196;8.096;2024-02-16T04:04:30;21.90;46.20
15983;DHT22;14442;50.196;8.096;2024-02-16T04:06:57;22.00;46.40
15983;DHT22;14442;50.196;8.096;2024-02-16T04:09:24;21.90;46.30
15983;DHT22;14442;50.196;8.096;2024-02-16T04:11:51;21.90;46.30
15983;DHT22;14442;50.196;8.096;2024-02-16T04:14:17;21.80;46.40
15983;DHT22;14442;50.196;8.096;2024-02-16T04:16:44;21.80;46.50
15983;DHT22;14442;50.196;8.096;2024-02-16T04:19:10;21.80;46.40
15983;DHT22;14442;50.196;8.096;2024-02-16T04:21:37;21.80;46.40
15983;DHT22;14442;50.196;8.096;2024-02-16T04:24:05;21.80;46.60
15983;DHT22;14442;50.196;8.096;2024-02-16T04:26:32;21.80;46.50
15983;DHT22;14442;50.196;8.096;2024-02-16T04:28:59;21.80;46.50
15983;DHT22;14442;50.196;8.096;2024-02-16T04:31:25;21.90;46.60
15983;DHT22;14442;50.196;8.096;2024-02-16T04:33:52;21.80;46.50
15983;DHT22;14442;50.196;8.096;2024-02-16T04:36:19;21.80;46.50
15983;DHT22;14442;50.196;8.096;2024-02-16T04:38:45;21.80;46.60
15983;DHT22;14442;50.196;8.096;2024-02-16T04:41:13;21.80;46.70
15983;DHT22;14442;50.196;8.096;2024-02-16T04:43:41;21.70;46.70
15983;DHT22;14442;50.196;8.096;2024-02-16T04:46:13;21.70;46.80
15983;DHT22;14442;50.196;8.096;2024-02-16T04:48:39;21.60;46.90
15983;DHT22;14442;50.196;8.096;2024-02-16T04:51:06;21.60;47.70
15983;DHT22;14442;50.196;8.096;2024-02-16T04:53:32;21.60;47.00
15983;DHT22;14442;50.196;8.096;2024-02-16T04:55:59;21.60;46.90
15983;DHT22;14442;50.196;8.096;2024-02-16T04:58:28;21.50;47.00
15983;DHT22;14442;50.196;8.096;2024-02-16T05:00:55;21.10;47.60
15983;DHT22;14442;50.196;8.096;2024-02-16T05:03:22;21.30;47.80
15983;DHT22;14442;50.196;8.096;2024-02-16T05:05:48;21.50;48.30
15983;DHT22;14442;50.196;8.096;2024-02-16T05:08:15;21.70;47.30
15983;DHT22;14442;50.196;8.096;2024-02-16T05:10:41;21.80;47.00
15983;DHT22;14442;50.196;8.096;2024-02-16T05:13:08;21.90;46.90
15983;DHT22;14442;50.196;8.096;2024-02-16T05:15:38;22.10;47.10
15983;DHT22;14442;50.196;8.096;2024-02-16T05:18:04;22.30;47.00
15983;DHT22;14442;50.196;8.096;2024-02-16T05:20:31;22.30;47.00
15983;DHT22;14442;50.196;8.096;2024-02-16T05:22:57;22.40;46.80
15983;DHT22;14442;50.196;8.096;2024-02-16T05:25:24;22.50;47.40
15983;DHT22;14442;50.196;8.096;2024-02-16T05:27:51;22.50;46.90
15983;DHT22;14442;50.196;8.096;2024-02-16T05:30:17;22.50;47.00
15983;DHT22;14442;50.196;8.096;2024-02-16T05:32:45;22.50;47.00
15983;DHT22;14442;50.196;8.096;2024-02-16T05:35:13;22.50;47.00
15983;DHT22;14442;50.196;8.096;2024-02-16T05:37:42;22.50;47.00
15983;DHT22;14442;50.196;8.096;2024-02-16T05:40:10;22.60;47.10
15983;DHT22;14442;50.196;8.096;2024-02-16T05:42:47;22.70;46.80
15983;DHT22;14442;50.196;8.096;2024-02-16T05:45:13;22.70;46.90
15983;DHT22;14442;50.196;8.096;2024-02-16T05:47:40;22.80;46.90
15983;DHT22;14442;50.196;8.096;2024-02-16T05:50:08;22.80;47.00
15983;DHT22;14442;50.196;8.096;2024-02-16T05:52:37;22.70;47.80
15983;DHT22;14442;50.196;8.096;2024-02-16T05:55:04;22.60;47.80
15983;DHT22;14442;50.196;8.096;2024-02-16T05:57:31;22.50;47.90
15983;DHT22;14442;50.196;8.096;2024-02-16T05:59:57;22.40;47.80
15983;DHT22;14442;50.196;8.096;2024-02-16T06:02:24;22.40;47.80
15983;DHT22;14442;50.196;8.096;2024-02-16T06:04:51;22.40;47.80
15983;DHT22;14442;50.196;8.096;2024-02-16T06:07:19;22.30;47.70
15983;DHT22;14442;50.196;8.096;2024-02-16T06:09:45;22.30;47.70
15983;DHT22;14442;50.196;8.096;2024-02-16T06:12:12;22.30;47.60
15983;DHT22;14442;50.196;8.096;2024-02-16T06:14:38;22.30;47.60
15983;DHT22;14442;50.196;8.096;2024-02-16T06:17:05;22.30;47.60
15983;DHT22;14442;50.196;8.096;2024-02-16T06:19:33;22.30;47.60
15983;DHT22;14442;50.196;8.096;2024-02-16T06:22:00;22.30;47.60
15983;DHT22;14442;50.196;8.096;2024-02-16T06:24:28;22.20;47.50
15983;DHT22;14442;50.196;8.096;2024-02-16T06:26:54;22.30;47.60
15983;DHT22;14442;50.196;8.096;2024-02-16T06:29:21;22.20;47.50
15983;DHT22;14442;50.196;8.096;2024-02-16T06:31:48;22.20;47.40
15983;DHT22;14442;50.196;8.096;2024-02-16T06:34:14;22.30;47.60
15983;DHT22;14442;50.196;8.096;2024-02-16T06:36:41;22.20;47.50
15983;DHT22;14442;50.196;8.096;2024-02-16T06:39:08;22.20;47.50
15983;DHT22;14442;50.196;8.096;2024-02-16T06:41:37;22.20;47.50
15983;DHT22;14442;50.196;8.096;2024-02-16T06:44:04;22.20;47.40
15983;DHT22;14442;50.196;8.096;2024-02-16T06:46:31;22.20;47.50
15983;DHT22;14442;50.196;8.096;2024-02-16T06:48:57;22.20;47.40
15983;DHT22;14442;50.196;8.096;2024-02-16T06:51:24;22.20;47.40
15983;DHT22;14442;50.196;8.096;2024-02-16T06:53:53;22.20;47.40
15983;DHT22;14442;50.196;8.096;2024-02-16T06:56:20;22.20;47.40
15983;DHT22;14442;50.196;8.096;2024-02-16T06:58:48;22.20;47.40
15983;DHT22;14442;50.196;8.096;2024-02-16T07:01:15;22.20;47.40
15983;DHT22;14442;50.196;8.096;2024-02-16T07:03:43;22.20;47.40
15983;DHT22;14442;50.196;8.096;2024-02-16T07:06:09;22.20;47.30
15983;DHT22;14442;50.196;8.096;2024-02-16T07:08:38;22.20;47.30
15983;DHT22;14442;50.196;8.096;2024-02-16T07:11:05;22.20;47.30
15983;DHT22;14442;50.196;8.096;2024-02-16T07:13:32;22.20;47.40
15983;DHT22;14442;50.196;8.096;2024-02-16T07:16:00;22.20;47.30
15983;DHT22;14442;50.196;8.096;2024-02-16T07:18:29;22.20;47.40
15983;DHT22;14442;50.196;8.096;2024-02-16T07:20:56;22.20;47.40
15983;DHT22;14442;50.196;8.096;2024-02-16T07:23:22;22.20;47.30
15983;DHT22;14442;50.196;8.096;2024-02-16T07:25:49;22.20;47.30
15983;DHT22;14442;50.196;8.096;2024-02-16T07:28:15;22.20;47.40
15983;DHT22;14442;50.196;8.096;2024-02-16T07:30:42;22.10;47.30
15983;DHT22;14442;50.196;8.096;2024-02-16T07:33:10;22.10;47.30
15983;DHT22;14442;50.196;8.096;2024-02-16T07:35:37;22.20;47.40
15983;DHT22;14442;50.196;8.096;2024-02-16T07:38:04;22.10;47.30
15983;DHT22;14442;50.196;8.096;2024-02-16T07:40:30;22.10;47.30
15983;DHT22;14442;50.196;8.096;2024-02-16T07:42:57;22.20;47.40
15983;DHT22;14442;50.196;8.096;2024-02-16T07:45:24;22.10;47.30
15983;DHT22;14442;50.196;8.096;2024-02-16T07:47:51;22.20;47.40
15983;DHT22;14442;50.196;8.096;2024-02-16T07:50:19;22.10;47.30
15983;DHT22;14442;50.196;8.096;2024-02-16T07:52:46;22.10;47.30
15983;DHT22;14442;50.196;8.096;2024-02-16T07:55:12;22.10;47.40
15983;DHT22;14442;50.196;8.096;2024-02-16T07:57:39;22.10;47.40
15983;DHT22;14442;50.196;8.096;2024-02-16T08:00:06;22.10;47.40
15983;DHT22;14442;50.196;8.096;2024-02-16T08:02:36;22.10;47.40
15983;DHT22;14442;50.196;8.096;2024-02-16T08:05:04;22.10;47.40
15983;DHT22;14442;50.196;8.096;2024-02-16T08:07:32;22.10;47.40
15983;DHT22;14442;50.196;8.096;2024-02-16T08:09:59;22.10;47.40
15983;DHT22;14442;50.196;8.096;2024-02-16T08:12:26;22.10;47.40
15983;DHT22;14442;50.196;8.096;2024-02-16T08:14:53;22.10;47.50
15983;DHT22;14442;50.196;8.096;2024-02-16T08:17:20;22.10;47.40
15983;DHT22;14442;50.196;8.096;2024-02-16T08:19:51;22.10;47.50
15983;DHT22;14442;50.196;8.096;2024-02-16T08:22:18;22.10;47.40
15983;DHT22;14442;50.196;8.096;2024-02-16T08:24:45;22.10;47.50
15983;DHT22;14442;50.196;8.096;2024-02-16T08:27:12;22.00;47.40
15983;DHT22;14442;50.196;8.096;2024-02-16T08:29:40;22.00;47.40
15983;DHT22;14442;50.196;8.096;2024-02-16T08:32:07;22.00;47.40
15983;DHT22;14442;50.196;8.096;2024-02-16T08:34:34;22.00;47.40
15983;DHT22;14442;50.196;8.096;2024-02-16T08:37:02;22.00;47.30
15983;DHT22;14442;50.196;8.096;2024-02-16T08:39:29;22.10;47.40
15983;DHT22;14442;50.196;8.096;2024-02-16T08:41:57;22.10;47.40
15983;DHT22;14442;50.196;8.096;2024-02-16T08:44:24;22.10;47.40
15983;DHT22;14442;50.196;8.096;2024-02-16T08:46:51;22.10;47.40
15983;DHT22;14442;50.196;8.096;2024-02-16T08:49:18;22.20;47.40
15983;DHT22;14442;50.196;8.096;2024-02-16T08:51:45;22.10;47.10
15983;DHT22;14442;50.196;8.096;2024-02-16T08:54:12;22.20;47.10
15983;DHT22;14442;50.196;8.096;2024-02-16T08:56:39;22.30;47.20
15983;DHT22;14442;50.196;8.096;2024-02-16T08:59:07;22.40;47.50
15983;DHT22;14442;50.196;8.096;2024-02-16T09:01:34;22.40;47.70
15983;DHT22;14442;50.196;8.096;2024-02-16T09:04:01;22.40;47.80
15983;DHT22;14442;50.196;8.096;2024-02-16T09:06:27;22.40;47.80
15983;DHT22;14442;50.196;8.096;2024-02-16T09:08:54;22.30;47.80
15983;DHT22;14442;50.196;8.096;2024-02-16T09:11:21;22.30;47.80
15983;DHT22;14442;50.196;8.096;2024-02-16T09:13:48;22.40;48.00
15983;DHT22;14442;50.196;8.096;2024-02-16T09:16:15;22.30;47.90
15983;DHT22;14442;50.196;8.096;2024-02-16T09:18:42;22.40;47.90
15983;DHT22;14442;50.196;8.096;2024-02-16T09:21:09;22.30;47.80
15983;DHT22;14442;50.196;8.096;2024-02-16T09:23:36;22.40;48.00
15983;DHT22;14442;50.196;8.096;2024-02-16T09:26:03;22.40;48.00
15983;DHT22;14442;50.196;8.096;2024-02-16T09:28:29;22.30;47.80
15983;DHT22;14442;50.196;8.096;2024-02-16T09:30:56;22.30;47.90
15983;DHT22;14442;50.196;8.096;2024-02-16T09:33:24;22.20;47.80
15983;DHT22;14442;50.196;8.096;2024-02-16T09:35:52;22.30;47.90
15983;DHT22;14442;50.196;8.096;2024-02-16T09:38:18;22.30;47.90
15983;DHT22;14442;50.196;8.096;2024-02-16T09:40:45;22.30;47.80
15983;DHT22;14442;50.196;8.096;2024-02-16T09:43:21;22.20;47.60
15983;DHT22;14442;50.196;8.096;2024-02-16T09:45:51;22.20;47.70
15983;DHT22;14442;50.196;8.096;2024-02-16T09:48:18;22.20;47.70
15983;DHT22;14442;50.196;8.096;2024-02-16T09:50:46;22.20;47.60
15983;DHT22;14442;50.196;8.096;2024-02-16T09:53:13;22.20;47.60
15983;DHT22;14442;50.196;8.096;2024-02-16T09:55:40;22.20;48.30
15983;DHT22;14442;50.196;8.096;2024-02-16T09:58:07;22.20;48.20
15983;DHT22;14442;50.196;8.096;2024-02-16T10:00:34;22.20;47.60
15983;DHT22;14442;50.196;8.096;2024-02-16T10:03:00;22.20;47.60
15983;DHT22;14442;50.196;8.096;2024-02-16T10:05:27;22.20;47.60
15983;DHT22;14442;50.196;8.096;2024-02-16T10:07:57;22.20;47.60
15983;DHT22;14442;50.196;8.096;2024-02-16T10:10:24;22.20;47.50
15983;DHT22;14442;50.196;8.096;2024-02-16T10:13:00;22.20;47.50
15983;DHT22;14442;50.196;8.096;2024-02-16T10:15:26;22.20;47.60
15983;DHT22;14442;50.196;8.096;2024-02-16T10:17:59;22.20;47.50
15983;DHT22;14442;50.196;8.096;2024-02-16T10:20:26;22.20;47.50
15983;DHT22;14442;50.196;8.096;2024-02-16T10:23:03;22.20;47.50
15983;DHT22;14442;50.196;8.096;2024-02-16T10:25:30;22.10;47.40
15983;DHT22;14442;50.196;8.096;2024-02-16T10:27:57;22.20;47.50
15983;DHT22;14442;50.196;8.096;2024-02-16T10:30:25;22.20;47.50
15983;DHT22;14442;50.196;8.096;2024-02-16T10:32:55;22.20;47.40
15983;DHT22;14442;50.196;8.096;2024-02-16T10:35:21;22.20;47.40
15983;DHT22;14442;50.196;8.096;2024-02-16T10:37:49;22.10;47.40
15983;DHT22;14442;50.196;8.096;2024-02-16T10:40:18;22.10;47.40
15983;DHT22;14442;50.196;8.096;2024-02-16T10:42:45;22.10;47.40
15983;DHT22;14442;50.196;8.096;2024-02-16T10:45:12;22.10;47.40
15983;DHT22;14442;50.196;8.096;2024-02-16T10:47:39;22.10;47.40
15983;DHT22;14442;50.196;8.096;2024-02-16T10:50:06;22.20;47.50
15983;DHT22;14442;50.196;8.096;2024-02-16T10:52:34;22.10;47.40
15983;DHT22;14442;50.196;8.096;2024-02-16T10:55:01;22.10;47.40
15983;DHT22;14442;50.196;8.096;2024-02-16T10:57:30;22.10;47.40
15983;DHT22;14442;50.196;8.096;2024-02-16T10:59:58;22.10;47.40
15983;DHT22;14442;50.196;8.096;2024-02-16T11:02:25;22.10;47.40
15983;DHT22;14442;50.196;8.096;2024-02-16T11:04:52;22.10;47.40
15983;DHT22;14442;50.196;8.096;2024-02-16T11:07:19;22.00;47.30
15983;DHT22;14442;50.196;8.096;2024-02-16T11:09:47;22.10;47.40
15983;DHT22;14442;50.196;8.096;2024-02-16T11:12:14;22.10;47.40
15983;DHT22;14442;50.196;8.096;2024-02-16T11:14:43;22.10;47.40
15983;DHT22;14442;50.196;8.096;2024-02-16T11:17:11;22.10;47.40
15983;DHT22;14442;50.196;8.096;2024-02-16T11:19:39;22.10;47.40
15983;DHT22;14442;50.196;8.096;2024-02-16T11:22:06;22.10;47.40
15983;DHT22;14442;50.196;8.096;2024-02-16T11:24:34;22.10;47.30
15983;DHT22;14442;50.196;8.096;2024-02-16T11:27:01;22.10;47.40
15983;DHT22;14442;50.196;8.096;2024-02-16T11:29:29;22.00;47.30
15983;DHT22;14442;50.196;8.096;2024-02-16T11:31:58;22.10;47.40
15983;DHT22;14442;50.196;8.096;2024-02-16T11:34:26;22.10;47.40
15983;DHT22;14442;50.196;8.096;2024-02-16T11:36:53;22.10;47.40
15983;DHT22;14442;50.196;8.096;2024-02-16T11:39:20;22.10;47.40
15983;DHT22;14442;50.196;8.096;2024-02-16T11:41:46;22.10;47.40
15983;DHT22;14442;50.196;8.096;2024-02-16T11:44:13;22.00;47.40
15983;DHT22;14442;50.196;8.096;2024-02-16T11:46:41;22.00;47.50
15983;DHT22;14442;50.196;8.096;2024-02-16T11:49:09;22.00;47.60
15983;DHT22;14442;50.196;8.096;2024-02-16T11:51:36;22.00;47.50
15983;DHT22;14442;50.196;8.096;2024-02-16T11:54:04;22.10;47.50
15983;DHT22;14442;50.196;8.096;2024-02-16T11:56:31;22.10;47.60
15983;DHT22;14442;50.196;8.096;2024-02-16T11:58:58;22.20;47.60
15983;DHT22;14442;50.196;8.096;2024-02-16T12:01:24;22.20;47.50
15983;DHT22;14442;50.196;8.096;2024-02-16T12:03:51;22.20;47.50
15983;DHT22;14442;50.196;8.096;2024-02-16T12:06:22;22.30;47.50
15983;DHT22;14442;50.196;8.096;2024-02-16T12:08:49;22.20;47.40
15983;DHT22;14442;50.196;8.096;2024-02-16T12:11:16;22.20;47.40
15983;DHT22;14442;50.196;8.096;2024-02-16T12:13:44;22.30;47.50
15983;DHT22;14442;50.196;8.096;2024-02-16T12:16:10;22.30;47.60
15983;DHT22;14442;50.196;8.096;2024-02-16T12:18:37;22.30;47.70
15983;DHT22;14442;50.196;8.096;2024-02-16T12:21:04;22.30;47.50
15983;DHT22;14442;50.196;8.096;2024-02-16T12:23:33;22.30;47.50
15983;DHT22;14442;50.196;8.096;2024-02-16T12:26:00;22.30;47.50
15983;DHT22;14442;50.196;8.096;2024-02-16T12:28:27;22.40;47.60
15983;DHT22;14442;50.196;8.096;2024-02-16T12:30:54;22.40;47.50
15983;DHT22;14442;50.196;8.096;2024-02-16T12:33:21;22.40;47.50
15983;DHT22;14442;50.196;8.096;2024-02-16T12:35:47;22.40;47.60
15983;DHT22;14442;50.196;8.096;2024-02-16T12:38:14;22.40;47.50
15983;DHT22;14442;50.196;8.096;2024-02-16T12:40:43;22.40;47.60
15983;DHT22;14442;50.196;8.096;2024-02-16T12:43:10;22.40;47.60
15983;DHT22;14442;50.196;8.096;2024-02-16T12:45:38;22.40;47.80
15983;DHT22;14442;50.196;8.096;2024-02-16T12:48:05;22.40;47.70
15983;DHT22;14442;50.196;8.096;2024-02-16T12:50:32;22.40;48.00
15983;DHT22;14442;50.196;8.096;2024-02-16T12:52:58;22.40;48.00
15983;DHT22;14442;50.196;8.096;2024-02-16T12:55:25;22.40;48.00
15983;DHT22;14442;50.196;8.096;2024-02-16T12:57:53;22.40;48.00
15983;DHT22;14442;50.196;8.096;2024-02-16T13:00:20;22.30;47.90
15983;DHT22;14442;50.196;8.096;2024-02-16T13:02:46;22.30;48.10
15983;DHT22;14442;50.196;8.096;2024-02-16T13:05:13;22.20;48.00
15983;DHT22;14442;50.196;8.096;2024-02-16T13:07:39;22.20;47.90
15983;DHT22;14442;50.196;8.096;2024-02-16T13:10:07;22.30;48.00
15983;DHT22;14442;50.196;8.096;2024-02-16T13:12:34;22.30;48.00
15983;DHT22;14442;50.196;8.096;2024-02-16T13:15:02;22.20;48.00
15983;DHT22;14442;50.196;8.096;2024-02-16T13:17:29;22.20;47.90
15983;DHT22;14442;50.196;8.096;2024-02-16T13:19:56;22.20;47.90
15983;DHT22;14442;50.196;8.096;2024-02-16T13:22:31;22.30;48.00
15983;DHT22;14442;50.196;8.096;2024-02-16T13:24:57;22.20;48.00
15983;DHT22;14442;50.196;8.096;2024-02-16T13:27:24;22.20;48.00
15983;DHT22;14442;50.196;8.096;2024-02-16T13:29:50;22.20;47.90
15983;DHT22;14442;50.196;8.096;2024-02-16T13:32:19;22.20;47.90
15983;DHT22;14442;50.196;8.096;2024-02-16T13:34:45;22.20;48.00
15983;DHT22;14442;50.196;8.096;2024-02-16T13:37:12;22.20;47.90
15983;DHT22;14442;50.196;8.096;2024-02-16T13:39:39;22.20;48.00
15983;DHT22;14442;50.196;8.096;2024-02-16T13:42:05;22.20;48.00
15983;DHT22;14442;50.196;8.096;2024-02-16T13:44:32;22.20;48.00
15983;DHT22;14442;50.196;8.096;2024-02-16T13:46:58;22.20;48.10
15983;DHT22;14442;50.196;8.096;2024-02-16T13:49:26;22.10;48.20
15983;DHT22;14442;50.196;8.096;2024-02-16T13:51:53;22.10;48.30
15983;DHT22;14442;50.196;8.096;2024-02-16T13:54:23;22.20;48.80
15983;DHT22;14442;50.196;8.096;2024-02-16T13:56:50;22.30;49.20
15983;DHT22;14442;50.196;8.096;2024-02-16T13:59:18;22.20;48.90
15983;DHT22;14442;50.196;8.096;2024-02-16T14:01:44;22.20;48.90
15983;DHT22;14442;50.196;8.096;2024-02-16T14:04:11;22.20;49.00
15983;DHT22;14442;50.196;8.096;2024-02-16T14:06:39;22.20;49.00
15983;DHT22;14442;50.196;8.096;2024-02-16T14:09:06;22.20;49.00
15983;DHT22;14442;50.196;8.096;2024-02-16T14:11:34;22.20;49.00
15983;DHT22;14442;50.196;8.096;2024-02-16T14:14:00;22.20;49.00
15983;DHT22;14442;50.196;8.096;2024-02-16T14:16:27;22.20;49.10
15983;DHT22;14442;50.196;8.096;2024-02-16T14:18:55;22.20;49.10
15983;DHT22;14442;50.196;8.096;2024-02-16T14:21:21;22.20;49.20
15983;DHT22;14442;50.196;8.096;2024-02-16T14:23:49;22.20;49.30
15983;DHT22;14442;50.196;8.096;2024-02-16T14:26:16;22.20;49.40
15983;DHT22;14442;50.196;8.096;2024-02-16T14:28:45;22.20;49.50
15983;DHT22;14442;50.196;8.096;2024-02-16T14:31:11;22.30;49.60
15983;DHT22;14442;50.196;8.096;2024-02-16T14:33:39;22.20;49.50
15983;DHT22;14442;50.196;8.096;2024-02-16T14:36:06;22.10;49.40
15983;DHT22;14442;50.196;8.096;2024-02-16T14:38:34;22.20;49.50
15983;DHT22;14442;50.196;8.096;2024-02-16T14:41:02;22.20;49.50
15983;DHT22;14442;50.196;8.096;2024-02-16T14:43:31;22.20;49.60
15983;DHT22;14442;50.196;8.096;2024-02-16T14:45:57;22.30;49.70
15983;DHT22;14442;50.196;8.096;2024-02-16T14:48:24;22.30;49.80
15983;DHT22;14442;50.196;8.096;2024-02-16T14:50:51;22.40;50.10
15983;DHT22;14442;50.196;8.096;2024-02-16T14:53:18;22.40;50.00
15983;DHT22;14442;50.196;8.096;2024-02-16T14:55:46;22.40;49.90
15983;DHT22;14442;50.196;8.096;2024-02-16T14:58:14;22.40;49.80
15983;DHT22;14442;50.196;8.096;2024-02-16T15:00:41;22.40;49.80
15983;DHT22;14442;50.196;8.096;2024-02-16T15:03:09;22.40;49.80
15983;DHT22;14442;50.196;8.096;2024-02-16T15:05:35;22.40;49.80
15983;DHT22;14442;50.196;8.096;2024-02-16T15:08:03;22.50;50.00
15983;DHT22;14442;50.196;8.096;2024-02-16T15:10:30;22.40;50.00
15983;DHT22;14442;50.196;8.096;2024-02-16T15:12:57;22.50;49.70
15983;DHT22;14442;50.196;8.096;2024-02-16T15:15:26;22.50;50.20
15983;DHT22;14442;50.196;8.096;2024-02-16T15:17:53;22.60;50.60
15983;DHT22;14442;50.196;8.096;2024-02-16T15:20:20;22.60;50.70
15983;DHT22;14442;50.196;8.096;2024-02-16T15:22:49;22.60;50.80
15983;DHT22;14442;50.196;8.096;2024-02-16T15:25:15;22.60;50.70
15983;DHT22;14442;50.196;8.096;2024-02-16T15:27:42;22.50;50.60
15983;DHT22;14442;50.196;8.096;2024-02-16T15:30:09;22.60;50.70